sensor_id;sensor_type;location;lat;lon;timestamp;pressure;altitude;pressure_sealevel;temperature;humidity
38900;BME280;24660;43.238;26.576;2023-02-12T00:01:43;100308.59;;;0.22;100.00
38900;BME280;24660;43.238;26.576;2023-02-12T00:04:08;100311.94;;;0.29;100.00
38900;BME280;24660;43.238;26.576;2023-02-12T00:06:34;100313.50;;;0.36;100.00
38900;BME280;24660;43.238;26.576;2023-02-12T00:08:59;100303.84;;;0.37;100.00
38900;BME280;24660;43.238;26.576;2023-02-12T00:11:26;100315.50;;;0.26;100.00
38900;BME280;24660;43.238;26.576;2023-02-12T00:13:52;100305.44;;;0.42;100.00
38900;BME280;24660;43.238;26.576;2023-02-12T00:16:19;100308.75;;;0.50;100.00
38900;BME280;24660;43.238;26.576;2023-02-12T00:18:45;100305.06;;;0.57;100.00
38900;BME280;24660;43.238;26.576;2023-02-12T00:21:11;100308.19;;;0.38;100.00
38900;BME280;24660;43.238;26.576;2023-02-12T00:23:38;100298.34;;;0.46;100.00
38900;BME280;24660;43.238;26.576;2023-02-12T00:26:05;100303.63;;;0.46;100.00
38900;BME280;24660;43.238;26.576;2023-02-12T00:28:31;100300.84;;;0.50;100.00
38900;BME280;24660;43.238;26.576;2023-02-12T00:30:56;100291.34;;;0.46;100.00
38900;BME280;24660;43.238;26.576;2023-02-12T00:33:21;100292.16;;;0.48;100.00
38900;BME280;24660;43.238;26.576;2023-02-12T00:35:55;100292.91;;;0.52;100.00
38900;BME280;24660;43.238;26.576;2023-02-12T00:38:20;100292.16;;;0.48;100.00
38900;BME280;24660;43.238;26.576;2023-02-12T00:40:45;100294.19;;;0.37;100.00
38900;BME280;24660;43.238;26.576;2023-02-12T00:43:10;100294.78;;;0.48;100.00
38900;BME280;24660;43.238;26.576;2023-02-12T00:45:36;100297.03;;;0.28;100.00
38900;BME280;24660;43.238;26.576;2023-02-12T00:48:02;100295.81;;;0.41;100.00
38900;BME280;24660;43.238;26.576;2023-02-12T00:50:27;100291.59;;;0.36;100.00
38900;BME280;24660;43.238;26.576;2023-02-12T00:52:53;100286.16;;;0.43;100.00
38900;BME280;24660;43.238;26.576;2023-02-12T00:55:18;100288.47;;;0.21;100.00
38900;BME280;24660;43.238;26.576;2023-02-12T00:57:43;100290.31;;;0.18;100.00
38900;BME280;24660;43.238;26.576;2023-02-12T01:00:09;100291.34;;;0.11;100.00
38900;BME280;24660;43.238;26.576;2023-02-12T01:02:34;100285.59;;;0.31;100.00
38900;BME280;24660;43.238;26.576;2023-02-12T01:05:00;100282.03;;;0.33;100.00
38900;BME280;24660;43.238;26.576;2023-02-12T01:07:25;100298.25;;;0.16;100.00
38900;BME280;24660;43.238;26.576;2023-02-12T01:09:50;100292.63;;;0.30;100.00
38900;BME280;24660;43.238;26.576;2023-02-12T01:12:15;100290.06;;;0.27;100.00
38900;BME280;24660;43.238;26.576;2023-02-12T01:14:41;100290.88;;;0.31;100.00
38900;BME280;24660;43.238;26.576;2023-02-12T01:17:07;100285.56;;;0.32;100.00
38900;BME280;24660;43.238;26.576;2023-02-12T01:19:32;100280.78;;;0.48;100.00
38900;BME280;24660;43.238;26.576;2023-02-12T01:21:57;100276.47;;;0.45;100.00
38900;BME280;24660;43.238;26.576;2023-02-12T01:24:23;100281.75;;;0.44;100.00
38900;BME280;24660;43.238;26.576;2023-02-12T01:26:49;100280.91;;;0.43;100.00
38900;BME280;24660;43.238;26.576;2023-02-12T01:29:14;100283.44;;;0.46;100.00
38900;BME280;24660;43.238;26.576;2023-02-12T01:31:39;100291.25;;;0.15;100.00
38900;BME280;24660;43.238;26.576;2023-02-12T01:34:06;100290.44;;;0.12;100.00
38900;BME280;24660;43.238;26.576;2023-02-12T01:36:32;100295.56;;;0.18;100.00
38900;BME280;24660;43.238;26.576;2023-02-12T01:38:58;100297.00;;;0.31;100.00
38900;BME280;24660;43.238;26.576;2023-02-12T01:41:24;100293.28;;;0.04;100.00
38900;BME280;24660;43.238;26.576;2023-02-12T01:46:30;100287.72;;;0.16;100.00
38900;BME280;24660;43.238;26.576;2023-02-12T01:48:55;100276.13;;;0.23;100.00
38900;BME280;24660;43.238;26.576;2023-02-12T01:51:21;100274.63;;;0.15;100.00
38900;BME280;24660;43.238;26.576;2023-02-12T01:53:48;100271.69;;;-0.09;100.00
38900;BME280;24660;43.238;26.576;2023-02-12T01:56:14;100272.53;;;-0.08;100.00
38900;BME280;24660;43.238;26.576;2023-02-12T01:58:41;100256.41;;;0.07;100.00
38900;BME280;24660;43.238;26.576;2023-02-12T02:01:07;100257.53;;;-0.03;100.00
38900;BME280;24660;43.238;26.576;2023-02-12T02:03:34;100245.84;;;0.09;100.00
38900;BME280;24660;43.238;26.576;2023-02-12T02:06:01;100257.09;;;0.14;100.00
38900;BME280;24660;43.238;26.576;2023-02-12T02:08:28;100256.34;;;0.09;100.00
38900;BME280;24660;43.238;26.576;2023-02-12T02:10:53;100258.06;;;0.10;100.00
38900;BME280;24660;43.238;26.576;2023-02-12T02:13:19;100241.53;;;0.06;100.00
38900;BME280;24660;43.238;26.576;2023-02-12T02:16:12;100243.44;;;-0.01;100.00
38900;BME280;24660;43.238;26.576;2023-02-12T02:18:46;100246.84;;;0.05;100.00
38900;BME280;24660;43.238;26.576;2023-02-12T02:31:25;100251.31;;;0.01;100.00
38900;BME280;24660;43.238;26.576;2023-02-12T02:38:51;100239.25;;;0.26;100.00
38900;BME280;24660;43.238;26.576;2023-02-12T02:41:24;100250.66;;;0.25;100.00
38900;BME280;24660;43.238;26.576;2023-02-12T02:43:52;100244.94;;;0.10;100.00
38900;BME280;24660;43.238;26.576;2023-02-12T02:48:45;100234.84;;;0.28;100.00
38900;BME280;24660;43.238;26.576;2023-02-12T02:51:14;100251.22;;;0.38;100.00
38900;BME280;24660;43.238;26.576;2023-02-12T02:53:42;100243.59;;;0.27;100.00
38900;BME280;24660;43.238;26.576;2023-02-12T02:56:11;100252.84;;;0.42;100.00
38900;BME280;24660;43.238;26.576;2023-02-12T02:58:38;100256.50;;;0.37;100.00
38900;BME280;24660;43.238;26.576;2023-02-12T03:03:31;100248.38;;;0.46;100.00
38900;BME280;24660;43.238;26.576;2023-02-12T03:06:01;100255.31;;;0.48;100.00
38900;BME280;24660;43.238;26.576;2023-02-12T03:08:29;100260.94;;;0.35;100.00
38900;BME280;24660;43.238;26.576;2023-02-12T03:13:41;100271.25;;;0.44;100.00
38900;BME280;24660;43.238;26.576;2023-02-12T03:16:10;100266.34;;;0.30;100.00
38900;BME280;24660;43.238;26.576;2023-02-12T03:18:41;100272.88;;;0.48;100.00
38900;BME280;24660;43.238;26.576;2023-02-12T03:21:10;100285.69;;;0.26;100.00
38900;BME280;24660;43.238;26.576;2023-02-12T03:23:42;100269.56;;;0.40;100.00
38900;BME280;24660;43.238;26.576;2023-02-12T03:26:12;100267.25;;;0.62;100.00
38900;BME280;24660;43.238;26.576;2023-02-12T03:28:39;100261.81;;;0.68;100.00
38900;BME280;24660;43.238;26.576;2023-02-12T03:36:00;100275.91;;;0.65;100.00
38900;BME280;24660;43.238;26.576;2023-02-12T03:38:36;100282.47;;;0.81;100.00
38900;BME280;24660;43.238;26.576;2023-02-12T03:43:29;100272.59;;;0.58;100.00
38900;BME280;24660;43.238;26.576;2023-02-12T03:48:43;100285.06;;;0.83;100.00
38900;BME280;24660;43.238;26.576;2023-02-12T03:51:19;100278.06;;;0.82;100.00
38900;BME280;24660;43.238;26.576;2023-02-12T03:53:47;100278.88;;;0.84;100.00
38900;BME280;24660;43.238;26.576;2023-02-12T03:56:17;100286.63;;;0.59;100.00
38900;BME280;24660;43.238;26.576;2023-02-12T03:58:43;100280.41;;;0.62;100.00
38900;BME280;24660;43.238;26.576;2023-02-12T04:01:09;100283.06;;;0.60;100.00
38900;BME280;24660;43.238;26.576;2023-02-12T04:03:35;100290.50;;;0.77;100.00
38900;BME280;24660;43.238;26.576;2023-02-12T04:06:00;100293.81;;;0.85;100.00
38900;BME280;24660;43.238;26.576;2023-02-12T04:08:26;100286.97;;;0.78;100.00
38900;BME280;24660;43.238;26.576;2023-02-12T04:13:23;100288.69;;;0.79;100.00
38900;BME280;24660;43.238;26.576;2023-02-12T04:18:22;100284.38;;;0.76;100.00
38900;BME280;24660;43.238;26.576;2023-02-12T04:25:47;100285.38;;;0.72;100.00
38900;BME280;24660;43.238;26.576;2023-02-12T04:30:46;100290.50;;;0.77;100.00
38900;BME280;24660;43.238;26.576;2023-02-12T04:33:18;100294.28;;;0.67;100.00
38900;BME280;24660;43.238;26.576;2023-02-12T04:35:48;100302.66;;;0.81;100.00
38900;BME280;24660;43.238;26.576;2023-02-12T04:38:16;100312.75;;;0.65;100.00
38900;BME280;24660;43.238;26.576;2023-02-12T04:40:43;100315.41;;;0.64;100.00
38900;BME280;24660;43.238;26.576;2023-02-12T04:43:09;100317.72;;;0.76;100.00
38900;BME280;24660;43.238;26.576;2023-02-12T04:45:35;100329.06;;;0.45;100.00
38900;BME280;24660;43.238;26.576;2023-02-12T04:48:00;100331.44;;;0.54;100.00
38900;BME280;24660;43.238;26.576;2023-02-12T04:50:26;100335.78;;;0.55;100.00
38900;BME280;24660;43.238;26.576;2023-02-12T04:52:58;100338.19;;;0.65;100.00
38900;BME280;24660;43.238;26.576;2023-02-12T04:55:24;100335.16;;;0.80;100.00
38900;BME280;24660;43.238;26.576;2023-02-12T04:57:49;100339.19;;;0.93;100.00
38900;BME280;24660;43.238;26.576;2023-02-12T05:00:14;100345.31;;;0.94;100.00
38900;BME280;24660;43.238;26.576;2023-02-12T05:02:40;100356.25;;;0.44;100.00
38900;BME280;24660;43.238;26.576;2023-02-12T05:05:05;100345.53;;;0.52;100.00
38900;BME280;24660;43.238;26.576;2023-02-12T05:07:30;100352.53;;;0.53;100.00
38900;BME280;24660;43.238;26.576;2023-02-12T05:09:56;100341.50;;;0.73;100.00
38900;BME280;24660;43.238;26.576;2023-02-12T05:12:21;100353.72;;;0.75;100.00
38900;BME280;24660;43.238;26.576;2023-02-12T05:14:46;100357.16;;;0.77;100.00
38900;BME280;24660;43.238;26.576;2023-02-12T05:17:12;100361.50;;;0.78;100.00
38900;BME280;24660;43.238;26.576;2023-02-12T05:19:37;100369.03;;;0.59;100.00
38900;BME280;24660;43.238;26.576;2023-02-12T05:22:02;100366.50;;;0.55;100.00
38900;BME280;24660;43.238;26.576;2023-02-12T05:24:28;100384.91;;;0.55;100.00
38900;BME280;24660;43.238;26.576;2023-02-12T05:26:53;100383.91;;;0.61;100.00
38900;BME280;24660;43.238;26.576;2023-02-12T05:29:19;100386.00;;;0.46;100.00
38900;BME280;24660;43.238;26.576;2023-02-12T05:31:44;100390.13;;;0.58;100.00
38900;BME280;24660;43.238;26.576;2023-02-12T05:34:10;100398.34;;;0.44;100.00
38900;BME280;24660;43.238;26.576;2023-02-12T05:36:36;100403.44;;;0.50;100.00
38900;BME280;24660;43.238;26.576;2023-02-12T05:39:02;100413.50;;;0.69;100.00
38900;BME280;24660;43.238;26.576;2023-02-12T05:41:27;100415.13;;;0.39;100.00
38900;BME280;24660;43.238;26.576;2023-02-12T05:43:53;100422.09;;;0.77;100.00
38900;BME280;24660;43.238;26.576;2023-02-12T05:46:19;100419.63;;;0.71;100.00
38900;BME280;24660;43.238;26.576;2023-02-12T05:48:44;100422.81;;;0.82;100.00
38900;BME280;24660;43.238;26.576;2023-02-12T05:51:12;100414.06;;;0.81;100.00
38900;BME280;24660;43.238;26.576;2023-02-12T05:53:38;100421.44;;;0.67;100.00
38900;BME280;24660;43.238;26.576;2023-02-12T05:56:12;100429.63;;;0.55;100.00
38900;BME280;24660;43.238;26.576;2023-02-12T05:58:38;100425.69;;;0.37;100.00
38900;BME280;24660;43.238;26.576;2023-02-12T06:01:10;100426.91;;;0.59;100.00
38900;BME280;24660;43.238;26.576;2023-02-12T06:03:36;100430.81;;;0.42;100.00
38900;BME280;24660;43.238;26.576;2023-02-12T06:06:01;100435.28;;;0.38;100.00
38900;BME280;24660;43.238;26.576;2023-02-12T06:08:26;100438.91;;;0.34;100.00
38900;BME280;24660;43.238;26.576;2023-02-12T06:10:52;100454.94;;;0.61;100.00
38900;BME280;24660;43.238;26.576;2023-02-12T06:13:17;100448.41;;;0.40;100.00
38900;BME280;24660;43.238;26.576;2023-02-12T06:15:42;100454.25;;;0.52;100.00
38900;BME280;24660;43.238;26.576;2023-02-12T06:18:07;100454.47;;;0.43;100.00
38900;BME280;24660;43.238;26.576;2023-02-12T06:20:33;100450.94;;;0.44;100.00
38900;BME280;24660;43.238;26.576;2023-02-12T06:22:58;100453.25;;;0.58;100.00
38900;BME280;24660;43.238;26.576;2023-02-12T06:25:23;100452.06;;;0.70;100.00
38900;BME280;24660;43.238;26.576;2023-02-12T06:27:49;100459.78;;;0.40;100.00
38900;BME280;24660;43.238;26.576;2023-02-12T06:30:14;100465.41;;;0.62;100.00
38900;BME280;24660;43.238;26.576;2023-02-12T06:32:39;100464.03;;;0.47;100.00
38900;BME280;24660;43.238;26.576;2023-02-12T06:35:05;100464.63;;;0.58;100.00
38900;BME280;24660;43.238;26.576;2023-02-12T06:37:30;100467.31;;;0.57;100.00
38900;BME280;24660;43.238;26.576;2023-02-12T06:39:56;100468.66;;;0.73;100.00
38900;BME280;24660;43.238;26.576;2023-02-12T06:42:22;100474.25;;;0.59;100.00
38900;BME280;24660;43.238;26.576;2023-02-12T06:44:47;100471.00;;;0.84;100.00
38900;BME280;24660;43.238;26.576;2023-02-12T06:47:12;100471.09;;;0.81;100.00
38900;BME280;24660;43.238;26.576;2023-02-12T06:49:38;100460.19;;;0.61;100.00
38900;BME280;24660;43.238;26.576;2023-02-12T06:52:03;100476.88;;;0.59;100.00
38900;BME280;24660;43.238;26.576;2023-02-12T06:54:28;100477.84;;;0.57;100.00
38900;BME280;24660;43.238;26.576;2023-02-12T06:56:54;100479.47;;;0.61;100.00
38900;BME280;24660;43.238;26.576;2023-02-12T06:59:19;100479.91;;;0.80;100.00
38900;BME280;24660;43.238;26.576;2023-02-12T07:01:45;100481.81;;;0.73;100.00
38900;BME280;24660;43.238;26.576;2023-02-12T07:04:10;100480.59;;;0.88;100.00
38900;BME280;24660;43.238;26.576;2023-02-12T07:06:36;100481.69;;;0.78;100.00
38900;BME280;24660;43.238;26.576;2023-02-12T07:09:02;100485.41;;;0.69;100.00
38900;BME280;24660;43.238;26.576;2023-02-12T07:11:29;100487.91;;;0.75;100.00
38900;BME280;24660;43.238;26.576;2023-02-12T07:13:54;100485.72;;;0.93;100.00
38900;BME280;24660;43.238;26.576;2023-02-12T07:16:20;100482.66;;;0.75;100.00
38900;BME280;24660;43.238;26.576;2023-02-12T07:18:45;100491.84;;;0.93;100.00
38900;BME280;24660;43.238;26.576;2023-02-12T07:21:11;100485.50;;;1.02;100.00
38900;BME280;24660;43.238;26.576;2023-02-12T07:23:37;100486.97;;;0.78;100.00
38900;BME280;24660;43.238;26.576;2023-02-12T07:26:04;100488.09;;;1.03;100.00
38900;BME280;24660;43.238;26.576;2023-02-12T07:28:30;100487.09;;;1.07;100.00
38900;BME280;24660;43.238;26.576;2023-02-12T07:30:57;100494.88;;;1.13;100.00
38900;BME280;24660;43.238;26.576;2023-02-12T07:33:23;100501.13;;;1.42;100.00
38900;BME280;24660;43.238;26.576;2023-02-12T07:35:48;100501.97;;;1.44;100.00
38900;BME280;24660;43.238;26.576;2023-02-12T07:38:13;100501.16;;;1.40;100.00
38900;BME280;24660;43.238;26.576;2023-02-12T07:40:39;100486.59;;;1.60;100.00
38900;BME280;24660;43.238;26.576;2023-02-12T07:43:04;100503.47;;;1.53;100.00
38900;BME280;24660;43.238;26.576;2023-02-12T07:45:29;100495.88;;;1.40;100.00
38900;BME280;24660;43.238;26.576;2023-02-12T07:47:54;100508.19;;;1.40;100.00
38900;BME280;24660;43.238;26.576;2023-02-12T07:50:20;100507.50;;;1.66;100.00
38900;BME280;24660;43.238;26.576;2023-02-12T07:52:47;100502.84;;;1.75;100.00
38900;BME280;24660;43.238;26.576;2023-02-12T07:55:13;100509.69;;;1.81;100.00
38900;BME280;24660;43.238;26.576;2023-02-12T07:57:38;100502.59;;;1.52;100.00
38900;BME280;24660;43.238;26.576;2023-02-12T08:00:04;100510.38;;;1.89;100.00
38900;BME280;24660;43.238;26.576;2023-02-12T08:02:29;100509.13;;;1.71;100.00
38900;BME280;24660;43.238;26.576;2023-02-12T08:04:55;100505.47;;;2.06;100.00
38900;BME280;24660;43.238;26.576;2023-02-12T08:07:21;100509.66;;;1.84;100.00
38900;BME280;24660;43.238;26.576;2023-02-12T08:09:46;100514.25;;;1.76;100.00
38900;BME280;24660;43.238;26.576;2023-02-12T08:12:11;100512.88;;;2.23;100.00
38900;BME280;24660;43.238;26.576;2023-02-12T08:14:37;100507.94;;;2.13;100.00
38900;BME280;24660;43.238;26.576;2023-02-12T08:17:02;100508.16;;;2.05;100.00
38900;BME280;24660;43.238;26.576;2023-02-12T08:19:27;100511.81;;;1.68;100.00
38900;BME280;24660;43.238;26.576;2023-02-12T08:21:53;100516.66;;;2.15;100.00
38900;BME280;24660;43.238;26.576;2023-02-12T08:24:18;100520.38;;;1.76;100.00
38900;BME280;24660;43.238;26.576;2023-02-12T08:26:45;100526.00;;;2.26;100.00
38900;BME280;24660;43.238;26.576;2023-02-12T08:29:12;100523.22;;;2.31;100.00
38900;BME280;24660;43.238;26.576;2023-02-12T08:31:39;100541.63;;;2.62;100.00
38900;BME280;24660;43.238;26.576;2023-02-12T08:34:05;100538.28;;;2.27;100.00
38900;BME280;24660;43.238;26.576;2023-02-12T08:36:34;100543.19;;;2.08;100.00
38900;BME280;24660;43.238;26.576;2023-02-12T08:39:00;100551.50;;;2.55;100.00
38900;BME280;24660;43.238;26.576;2023-02-12T08:41:27;100559.78;;;2.73;100.00
38900;BME280;24660;43.238;26.576;2023-02-12T08:43:53;100555.19;;;3.06;100.00
38900;BME280;24660;43.238;26.576;2023-02-12T08:46:19;100565.19;;;3.24;100.00
38900;BME280;24660;43.238;26.576;2023-02-12T08:48:45;100560.97;;;3.70;100.00
38900;BME280;24660;43.238;26.576;2023-02-12T08:51:12;100567.63;;;3.80;100.00
38900;BME280;24660;43.238;26.576;2023-02-12T08:53:39;100576.09;;;2.85;100.00
38900;BME280;24660;43.238;26.576;2023-02-12T08:56:05;100581.16;;;3.19;100.00
38900;BME280;24660;43.238;26.576;2023-02-12T08:58:31;100578.38;;;3.24;100.00
38900;BME280;24660;43.238;26.576;2023-02-12T09:00:57;100579.72;;;3.62;100.00
38900;BME280;24660;43.238;26.576;2023-02-12T09:03:22;100584.06;;;3.90;100.00
38900;BME280;24660;43.238;26.576;2023-02-12T09:05:48;100585.44;;;3.50;100.00
38900;BME280;24660;43.238;26.576;2023-02-12T09:08:13;100585.09;;;3.06;100.00
38900;BME280;24660;43.238;26.576;2023-02-12T09:10:39;100584.44;;;3.00;100.00
38900;BME280;24660;43.238;26.576;2023-02-12T09:13:05;100580.84;;;2.45;100.00
38900;BME280;24660;43.238;26.576;2023-02-12T09:15:31;100583.44;;;2.76;100.00
38900;BME280;24660;43.238;26.576;2023-02-12T09:18:00;100585.00;;;2.81;100.00
38900;BME280;24660;43.238;26.576;2023-02-12T09:20:28;100589.41;;;2.82;100.00
38900;BME280;24660;43.238;26.576;2023-02-12T09:22:53;100583.63;;;2.97;100.00
38900;BME280;24660;43.238;26.576;2023-02-12T09:25:18;100588.63;;;3.07;100.00
38900;BME280;24660;43.238;26.576;2023-02-12T09:27:44;100582.72;;;3.26;100.00
38900;BME280;24660;43.238;26.576;2023-02-12T09:30:09;100583.97;;;3.41;100.00
38900;BME280;24660;43.238;26.576;2023-02-12T09:32:35;100583.13;;;3.41;100.00
38900;BME280;24660;43.238;26.576;2023-02-12T09:35:00;100596.34;;;3.66;100.00
38900;BME280;24660;43.238;26.576;2023-02-12T09:37:25;100594.09;;;3.28;100.00
38900;BME280;24660;43.238;26.576;2023-02-12T09:39:51;100602.13;;;3.77;100.00
38900;BME280;24660;43.238;26.576;2023-02-12T09:44:58;100600.38;;;3.24;100.00
38900;BME280;24660;43.238;26.576;2023-02-12T09:47:35;100608.88;;;3.06;100.00
38900;BME280;24660;43.238;26.576;2023-02-12T09:52:44;100606.22;;;3.61;100.00
38900;BME280;24660;43.238;26.576;2023-02-12T09:55:17;100604.84;;;3.49;100.00
38900;BME280;24660;43.238;26.576;2023-02-12T09:57:43;100607.41;;;2.97;100.00
38900;BME280;24660;43.238;26.576;2023-02-12T10:00:10;100608.22;;;3.00;100.00
38900;BME280;24660;43.238;26.576;2023-02-12T10:02:39;100607.03;;;3.10;100.00
38900;BME280;24660;43.238;26.576;2023-02-12T10:05:05;100605.69;;;2.67;100.00
38900;BME280;24660;43.238;26.576;2023-02-12T10:17:53;100615.13;;;3.04;100.00
38900;BME280;24660;43.238;26.576;2023-02-12T10:20:51;100613.47;;;3.01;100.00
38900;BME280;24660;43.238;26.576;2023-02-12T10:28:15;100618.13;;;3.47;100.00
38900;BME280;24660;43.238;26.576;2023-02-12T10:30:43;100618.13;;;3.47;100.00
38900;BME280;24660;43.238;26.576;2023-02-12T10:33:16;100629.59;;;3.99;100.00
38900;BME280;24660;43.238;26.576;2023-02-12T10:35:47;100627.19;;;3.92;100.00
38900;BME280;24660;43.238;26.576;2023-02-12T10:38:15;100622.34;;;4.04;100.00
38900;BME280;24660;43.238;26.576;2023-02-12T10:40:42;100625.13;;;3.75;100.00
38900;BME280;24660;43.238;26.576;2023-02-12T10:43:09;100627.66;;;3.78;100.00
38900;BME280;24660;43.238;26.576;2023-02-12T10:45:36;100633.50;;;3.35;100.00
38900;BME280;24660;43.238;26.576;2023-02-12T10:48:40;100631.97;;;3.55;100.00
38900;BME280;24660;43.238;26.576;2023-02-12T10:53:31;100641.94;;;3.99;100.00
38900;BME280;24660;43.238;26.576;2023-02-12T10:56:09;100637.66;;;3.70;100.00
38900;BME280;24660;43.238;26.576;2023-02-12T10:58:39;100640.03;;;4.02;100.00
38900;BME280;24660;43.238;26.576;2023-02-12T11:01:11;100642.13;;;4.42;100.00
38900;BME280;24660;43.238;26.576;2023-02-12T11:03:39;100636.22;;;3.86;100.00
38900;BME280;24660;43.238;26.576;2023-02-12T11:06:17;100636.75;;;4.21;100.00
38900;BME280;24660;43.238;26.576;2023-02-12T11:08:43;100642.91;;;3.96;100.00
38900;BME280;24660;43.238;26.576;2023-02-12T11:13:56;100641.22;;;4.43;92.07
38900;BME280;24660;43.238;26.576;2023-02-12T11:16:26;100636.91;;;4.64;91.10
38900;BME280;24660;43.238;26.576;2023-02-12T11:18:56;100637.94;;;4.84;87.35
38900;BME280;24660;43.238;26.576;2023-02-12T11:21:22;100645.69;;;4.66;86.97
38900;BME280;24660;43.238;26.576;2023-02-12T11:23:47;100647.66;;;4.60;87.78
38900;BME280;24660;43.238;26.576;2023-02-12T11:26:22;100647.25;;;4.47;88.06
38900;BME280;24660;43.238;26.576;2023-02-12T11:28:55;100656.97;;;4.46;93.51
38900;BME280;24660;43.238;26.576;2023-02-12T11:34:05;100653.09;;;4.57;95.39
38900;BME280;24660;43.238;26.576;2023-02-12T11:36:32;100657.72;;;4.50;100.00
38900;BME280;24660;43.238;26.576;2023-02-12T11:38:59;100653.59;;;4.43;100.00
38900;BME280;24660;43.238;26.576;2023-02-12T11:41:33;100664.44;;;4.35;100.00
38900;BME280;24660;43.238;26.576;2023-02-12T11:44:01;100669.03;;;4.05;100.00
38900;BME280;24660;43.238;26.576;2023-02-12T11:46:33;100673.09;;;4.15;100.00
38900;BME280;24660;43.238;26.576;2023-02-12T11:48:58;100654.94;;;4.30;100.00
38900;BME280;24660;43.238;26.576;2023-02-12T11:51:27;100661.28;;;4.26;100.00
38900;BME280;24660;43.238;26.576;2023-02-12T11:53:54;100662.19;;;4.25;100.00
38900;BME280;24660;43.238;26.576;2023-02-12T11:56:20;100656.19;;;4.20;100.00
38900;BME280;24660;43.238;26.576;2023-02-12T11:58:46;100660.63;;;4.19;100.00
38900;BME280;24660;43.238;26.576;2023-02-12T12:03:48;100648.41;;;4.40;100.00
38900;BME280;24660;43.238;26.576;2023-02-12T12:08:42;100657.69;;;4.75;100.00
38900;BME280;24660;43.238;26.576;2023-02-12T12:16:23;100669.50;;;4.66;100.00
38900;BME280;24660;43.238;26.576;2023-02-12T12:19:07;100666.09;;;4.63;100.00
38900;BME280;24660;43.238;26.576;2023-02-12T12:22:01;100668.38;;;4.48;100.00
38900;BME280;24660;43.238;26.576;2023-02-12T12:24:30;100661.41;;;4.46;100.00
38900;BME280;24660;43.238;26.576;2023-02-12T12:27:00;100676.78;;;4.36;100.00
38900;BME280;24660;43.238;26.576;2023-02-12T12:32:09;100679.84;;;4.49;100.00
38900;BME280;24660;43.238;26.576;2023-02-12T12:34:36;100684.88;;;4.57;100.00
38900;BME280;24660;43.238;26.576;2023-02-12T12:44:54;100690.41;;;4.26;100.00
38900;BME280;24660;43.238;26.576;2023-02-12T12:47:57;100693.63;;;4.34;100.00
38900;BME280;24660;43.238;26.576;2023-02-12T12:55:14;100705.25;;;4.30;100.00
38900;BME280;24660;43.238;26.576;2023-02-12T12:57:52;100706.06;;;4.05;100.00
38900;BME280;24660;43.238;26.576;2023-02-12T13:08:07;100714.94;;;3.78;100.00
38900;BME280;24660;43.238;26.576;2023-02-12T13:10:41;100720.03;;;3.84;100.00
38900;BME280;24660;43.238;26.576;2023-02-12T13:13:14;100726.38;;;3.78;100.00
38900;BME280;24660;43.238;26.576;2023-02-12T13:18:16;100738.84;;;3.75;100.00
38900;BME280;24660;43.238;26.576;2023-02-12T13:20:46;100741.03;;;3.88;100.00
38900;BME280;24660;43.238;26.576;2023-02-12T13:23:14;100740.66;;;3.73;100.00
38900;BME280;24660;43.238;26.576;2023-02-12T13:28:08;100746.16;;;3.93;100.00
38900;BME280;24660;43.238;26.576;2023-02-12T13:30:38;100761.97;;;3.96;100.00
38900;BME280;24660;43.238;26.576;2023-02-12T13:33:14;100757.88;;;3.86;100.00
38900;BME280;24660;43.238;26.576;2023-02-12T13:35:42;100767.31;;;3.95;100.00
38900;BME280;24660;43.238;26.576;2023-02-12T13:38:12;100772.09;;;4.10;100.00
38900;BME280;24660;43.238;26.576;2023-02-12T13:40:41;100782.31;;;3.94;100.00
38900;BME280;24660;43.238;26.576;2023-02-12T13:43:43;100782.16;;;3.71;100.00
38900;BME280;24660;43.238;26.576;2023-02-12T13:45:55;100783.78;;;3.75;100.00
38900;BME280;24660;43.238;26.576;2023-02-12T13:50:50;100793.22;;;3.55;100.00
38900;BME280;24660;43.238;26.576;2023-02-12T13:53:24;100800.22;;;3.56;100.00
38900;BME280;24660;43.238;26.576;2023-02-12T13:58:38;100805.97;;;3.71;100.00
38900;BME280;24660;43.238;26.576;2023-02-12T14:03:31;100812.78;;;3.78;100.00
38900;BME280;24660;43.238;26.576;2023-02-12T14:08:40;100821.56;;;3.78;100.00
38900;BME280;24660;43.238;26.576;2023-02-12T14:11:07;100823.13;;;3.57;100.00
38900;BME280;24660;43.238;26.576;2023-02-12T14:13:35;100825.44;;;3.68;100.00
38900;BME280;24660;43.238;26.576;2023-02-12T14:16:18;100823.94;;;3.60;100.00
38900;BME280;24660;43.238;26.576;2023-02-12T14:18:43;100819.78;;;3.79;100.00
38900;BME280;24660;43.238;26.576;2023-02-12T14:23:35;100831.38;;;3.75;100.00
38900;BME280;24660;43.238;26.576;2023-02-12T14:28:28;100841.00;;;3.77;100.00
38900;BME280;24660;43.238;26.576;2023-02-12T14:33:36;100848.88;;;3.79;100.00
38900;BME280;24660;43.238;26.576;2023-02-12T14:49:33;100857.41;;;4.16;100.00
38900;BME280;24660;43.238;26.576;2023-02-12T14:52:01;100864.31;;;3.94;100.00
38900;BME280;24660;43.238;26.576;2023-02-12T14:54:31;100868.69;;;3.95;100.00
38900;BME280;24660;43.238;26.576;2023-02-12T14:56:59;100862.34;;;4.01;100.00
38900;BME280;24660;43.238;26.576;2023-02-12T14:59:25;100867.19;;;3.86;100.00
38900;BME280;24660;43.238;26.576;2023-02-12T15:01:52;100867.81;;;3.95;100.00
38900;BME280;24660;43.238;26.576;2023-02-12T15:04:20;100869.06;;;3.83;100.00
38900;BME280;24660;43.238;26.576;2023-02-12T15:06:50;100879.28;;;3.95;100.00
38900;BME280;24660;43.238;26.576;2023-02-12T15:09:20;100878.69;;;3.85;100.00